createdAt,value
2024-03-12T00:00:30.601Z,24.42
2024-03-12T00:02:58.489Z,25.52
2024-03-12T00:05:26.471Z,23.55
2024-03-12T00:07:54.526Z,24.52
2024-03-12T00:10:22.380Z,23.85
2024-03-12T00:12:53.634Z,23.90
2024-03-12T00:15:24.812Z,25.00
2024-03-12T00:17:55.741Z,22.95
2024-03-12T00:20:31.631Z,24.30
2024-03-12T00:23:00.341Z,23.63
2024-03-12T00:25:29.406Z,24.20
2024-03-12T00:28:00.571Z,24.38
2024-03-12T00:30:30.151Z,23.33
2024-03-12T00:32:59.196Z,23.60
2024-03-12T00:35:29.728Z,23.20
2024-03-12T00:37:59.116Z,23.80
2024-03-12T00:40:35.052Z,22.90
2024-03-12T00:43:07.175Z,23.02
2024-03-12T00:45:39.675Z,22.83
2024-03-12T00:48:10.769Z,22.60
2024-03-12T00:50:40.367Z,22.10
2024-03-12T00:53:09.066Z,23.08
2024-03-12T00:55:37.765Z,22.30
2024-03-12T00:58:11.898Z,21.90
2024-03-12T01:00:41.242Z,22.13
2024-03-12T01:03:10.993Z,21.08
2024-03-12T01:08:10.192Z,19.58
2024-03-12T01:13:10.219Z,22.42
2024-03-12T01:15:39.425Z,22.65
2024-03-12T01:18:09.496Z,23.30
2024-03-12T01:20:37.958Z,22.80
2024-03-12T01:23:07.817Z,21.90
2024-03-12T01:25:37.661Z,21.73
2024-03-12T01:28:12.053Z,23.60
2024-03-12T01:30:40.866Z,22.77
2024-03-12T01:33:09.083Z,22.60
2024-03-12T01:35:40.999Z,23.83
2024-03-12T01:38:12.307Z,23.13
2024-03-12T01:40:43.321Z,23.48
2024-03-12T01:43:14.024Z,23.92
2024-03-12T01:45:43.939Z,22.88
2024-03-12T01:48:12.860Z,24.48
2024-03-12T01:50:41.641Z,24.45
2024-03-12T01:53:11.221Z,24.92
2024-03-12T01:58:17.563Z,23.25
2024-03-12T02:00:46.997Z,25.70
2024-03-12T02:03:16.203Z,23.90
2024-03-12T02:05:44.398Z,24.07
2024-03-12T02:08:13.124Z,24.20
2024-03-12T02:10:41.286Z,24.60
2024-03-12T02:13:09.621Z,22.70
2024-03-12T02:15:40.091Z,22.95
2024-03-12T02:18:10.918Z,23.80
2024-03-12T02:20:39.218Z,23.88
2024-03-12T02:23:07.313Z,24.35
2024-03-12T02:25:36.761Z,22.23
2024-03-12T02:28:04.834Z,24.42
2024-03-12T02:30:33.043Z,23.65
2024-03-12T02:33:01.330Z,23.00
2024-03-12T02:35:29.189Z,24.17
2024-03-12T02:37:57.002Z,23.15
2024-03-12T02:40:25.077Z,22.30
2024-03-12T02:42:54.434Z,23.42
2024-03-12T02:45:24.836Z,24.58
2024-03-12T02:47:53.133Z,23.08
2024-03-12T02:50:21.276Z,23.55
2024-03-12T02:52:49.182Z,23.75
2024-03-12T02:55:17.432Z,22.92
2024-03-12T02:57:45.606Z,22.65
2024-03-12T03:00:16.206Z,22.90
2024-03-12T03:02:45.593Z,23.15
2024-03-12T03:05:15.786Z,22.15
2024-03-12T03:07:44.301Z,21.95
2024-03-12T03:10:13.972Z,22.40
2024-03-12T03:12:42.561Z,22.17
2024-03-12T03:15:14.297Z,22.88
2024-03-12T03:17:46.765Z,22.40
2024-03-12T03:20:16.350Z,23.15
2024-03-12T03:22:44.794Z,24.45
2024-03-12T03:25:14.636Z,23.27
2024-03-12T03:27:43.765Z,24.05
2024-03-12T03:30:14.332Z,24.35
2024-03-12T03:32:43.736Z,24.08
2024-03-12T03:35:12.402Z,23.73
2024-03-12T03:37:41.716Z,22.88
2024-03-12T03:40:12.671Z,22.98
2024-03-12T03:42:42.874Z,24.90
2024-03-12T03:45:11.138Z,24.38
2024-03-12T03:47:39.250Z,21.88
2024-03-12T03:50:09.436Z,22.40
2024-03-12T03:52:38.145Z,22.95
2024-03-12T03:55:08.256Z,22.60
2024-03-12T03:57:36.342Z,23.73
2024-03-12T04:00:14.190Z,24.77
2024-03-12T04:02:44.406Z,25.85
2024-03-12T04:05:14.139Z,24.20
2024-03-12T04:10:12.764Z,24.20
2024-03-12T04:12:41.903Z,23.73
2024-03-12T04:15:11.049Z,24.80
2024-03-12T04:17:39.262Z,23.90
2024-03-12T04:20:11.247Z,24.65
2024-03-12T04:22:40.777Z,23.92
2024-03-12T04:25:10.025Z,24.13
2024-03-12T04:27:39.219Z,23.58
2024-03-12T04:30:10.359Z,24.20
2024-03-12T04:32:38.531Z,23.80
2024-03-12T04:35:08.124Z,23.55
2024-03-12T04:37:36.280Z,22.35
2024-03-12T04:40:08.256Z,23.88
2024-03-12T04:42:37.135Z,23.63
2024-03-12T04:45:06.899Z,23.92
2024-03-12T04:47:36.591Z,23.85
2024-03-12T04:50:05.712Z,24.10
2024-03-12T04:52:35.137Z,23.88
2024-03-12T04:55:03.117Z,24.38
2024-03-12T04:57:32.724Z,23.92
2024-03-12T05:00:01.236Z,25.02
2024-03-12T05:02:29.082Z,25.88
2024-03-12T05:04:57.179Z,23.58
2024-03-12T05:07:24.988Z,24.55
2024-03-12T05:09:53.444Z,26.33
2024-03-12T05:12:21.510Z,24.85
2024-03-12T05:14:50.801Z,25.40
2024-03-12T05:17:19.168Z,26.10
2024-03-12T05:19:47.264Z,26.30
2024-03-12T05:22:15.120Z,25.65
2024-03-12T05:24:42.968Z,27.60
2024-03-12T05:27:11.437Z,26.38
2024-03-12T05:29:43.622Z,25.48
2024-03-12T05:32:19.840Z,28.05
2024-03-12T05:34:48.685Z,28.02
2024-03-12T05:37:30.244Z,28.77
2024-03-12T05:40:15.912Z,28.27
2024-03-12T05:43:01.819Z,29.83
2024-03-12T05:45:47.096Z,28.13
2024-03-12T05:48:16.629Z,27.83
2024-03-12T05:50:44.587Z,28.45
2024-03-12T05:53:12.645Z,30.85
2024-03-12T05:55:41.813Z,30.38
2024-03-12T06:00:39.958Z,29.00
2024-03-12T06:03:08.051Z,31.50
2024-03-12T06:05:37.279Z,29.80
2024-03-12T06:08:05.770Z,31.35
2024-03-12T06:10:33.855Z,31.90
2024-03-12T06:13:01.673Z,31.05
2024-03-12T06:15:30.691Z,31.10
2024-03-12T06:17:58.826Z,31.63
2024-03-12T06:20:28.349Z,31.30
2024-03-12T06:22:58.609Z,31.83
2024-03-12T06:25:26.464Z,33.08
2024-03-12T06:27:54.884Z,30.92
2024-03-12T06:30:24.269Z,31.92
2024-03-12T06:32:52.492Z,30.75
2024-03-12T06:35:20.493Z,30.30
2024-03-12T06:37:48.946Z,32.35
2024-03-12T06:40:18.437Z,32.25
2024-03-12T06:45:14.661Z,31.95
2024-03-12T06:47:42.967Z,32.63
2024-03-12T06:50:11.497Z,32.40
2024-03-12T06:52:39.536Z,32.67
2024-03-12T06:55:16.849Z,33.58
2024-03-12T06:57:50.321Z,31.45
2024-03-12T07:00:27.755Z,32.25
2024-03-12T07:02:56.189Z,30.83
2024-03-12T07:05:26.795Z,32.67
2024-03-12T07:07:55.044Z,34.17
2024-03-12T07:10:24.066Z,32.50
2024-03-12T07:12:53.431Z,31.13
2024-03-12T07:15:21.400Z,32.30
2024-03-12T07:17:49.662Z,30.92
2024-03-12T07:20:21.522Z,32.85
2024-03-12T07:22:49.712Z,31.77
2024-03-12T07:25:18.138Z,31.85
2024-03-12T07:27:46.044Z,31.42
2024-03-12T07:30:16.328Z,31.20
2024-03-12T07:32:44.599Z,30.98
2024-03-12T07:35:13.163Z,29.48
2024-03-12T07:37:43.359Z,31.55
2024-03-12T07:40:13.209Z,30.98
2024-03-12T07:42:42.367Z,32.42
2024-03-12T07:45:11.205Z,32.05
2024-03-12T07:47:40.968Z,30.63
2024-03-12T07:50:10.398Z,30.90
2024-03-12T07:52:38.609Z,30.60
2024-03-12T07:55:07.921Z,31.52
2024-03-12T07:57:36.886Z,29.77
2024-03-12T08:00:06.409Z,30.75
2024-03-12T08:02:34.239Z,30.83
2024-03-12T08:05:05.685Z,31.02
2024-03-12T08:07:33.796Z,30.13
2024-03-12T08:10:02.012Z,30.70
2024-03-12T08:12:29.941Z,30.90
2024-03-12T08:14:59.068Z,30.67
2024-03-12T08:17:27.642Z,30.92
2024-03-12T08:19:55.612Z,31.27
2024-03-12T08:22:25.132Z,30.58
2024-03-12T08:24:53.052Z,30.58
2024-03-12T08:27:20.977Z,29.33
2024-03-12T08:29:48.949Z,30.17
2024-03-12T08:32:16.775Z,29.45
2024-03-12T08:34:44.613Z,30.52
2024-03-12T08:37:13.396Z,29.05
2024-03-12T08:39:42.850Z,28.38
2024-03-12T08:42:11.228Z,28.38
2024-03-12T08:44:39.379Z,30.25
2024-03-12T08:47:08.561Z,29.17
2024-03-12T08:49:36.682Z,29.13
2024-03-12T08:52:05.909Z,27.02
2024-03-12T08:54:34.790Z,29.70
2024-03-12T08:59:32.189Z,29.83
2024-03-12T09:02:00.943Z,28.15
2024-03-12T09:04:31.659Z,29.98
2024-03-12T09:09:28.751Z,30.23
2024-03-12T09:11:58.130Z,30.85
2024-03-12T09:14:27.628Z,30.73
2024-03-12T09:16:55.436Z,29.77
2024-03-12T09:19:25.956Z,31.25
2024-03-12T09:21:54.628Z,29.88
2024-03-12T09:24:24.000Z,29.70
2024-03-12T09:26:53.018Z,30.92
2024-03-12T09:29:21.901Z,32.47
2024-03-12T09:31:51.263Z,31.15
2024-03-12T09:34:19.146Z,31.20
2024-03-12T09:36:47.414Z,32.83
2024-03-12T09:39:18.248Z,32.72
2024-03-12T09:41:53.493Z,32.00
2024-03-12T09:44:22.657Z,32.33
2024-03-12T09:46:52.513Z,33.33
2024-03-12T09:49:20.701Z,34.28
2024-03-12T09:51:48.684Z,36.45
2024-03-12T09:54:16.860Z,35.65
2024-03-12T09:56:45.292Z,38.58
2024-03-12T09:59:13.112Z,37.53
2024-03-12T10:01:40.976Z,36.13
2024-03-12T10:04:10.947Z,38.60
2024-03-12T10:06:39.131Z,38.25
2024-03-12T10:09:11.992Z,37.92
2024-03-12T10:11:46.122Z,37.70
2024-03-12T10:14:14.837Z,38.85
2024-03-12T10:16:42.821Z,38.53
2024-03-12T10:19:16.463Z,37.10
2024-03-12T10:21:46.179Z,40.38
2024-03-12T10:26:45.609Z,38.50
2024-03-12T10:29:19.243Z,39.05
2024-03-12T10:31:48.158Z,41.88
2024-03-12T10:34:20.939Z,40.75
2024-03-12T10:36:51.488Z,42.35
2024-03-12T10:39:28.624Z,41.75
2024-03-12T10:41:58.503Z,41.60
2024-03-12T10:44:29.187Z,42.33
2024-03-12T10:46:59.504Z,42.50
2024-03-12T10:49:30.781Z,40.85
2024-03-12T10:52:00.317Z,40.40
2024-03-12T10:57:00.342Z,38.35
2024-03-12T10:59:32.759Z,39.58
2024-03-12T11:02:02.475Z,37.92
2024-03-12T11:04:33.876Z,37.83
2024-03-12T11:07:03.806Z,37.28
2024-03-12T11:09:34.146Z,40.25
2024-03-12T11:12:02.207Z,36.97
2024-03-12T11:14:30.192Z,37.92
2024-03-12T11:16:58.051Z,35.00
2024-03-12T11:19:27.506Z,35.95
2024-03-12T11:24:33.333Z,34.97
2024-03-12T11:27:02.323Z,34.30
2024-03-12T11:30:15.467Z,33.90
2024-03-12T11:32:45.973Z,35.28
2024-03-12T11:35:35.619Z,33.03
2024-03-12T11:40:50.144Z,27.88
2024-03-12T11:43:34.758Z,30.27
2024-03-12T11:46:02.664Z,30.02
2024-03-12T11:48:36.098Z,29.88
2024-03-12T11:51:06.038Z,29.42
2024-03-12T11:53:37.064Z,28.67
2024-03-12T11:56:16.774Z,28.85
2024-03-12T11:58:49.156Z,27.80
2024-03-12T12:01:20.064Z,27.83
2024-03-12T12:03:50.919Z,27.25
2024-03-12T12:06:20.751Z,28.52
2024-03-12T12:08:57.208Z,27.10
2024-03-12T12:11:29.951Z,26.80
2024-03-12T12:16:30.518Z,23.80
2024-03-12T12:19:06.512Z,23.95
2024-03-12T12:21:35.697Z,24.25
2024-03-12T12:24:05.612Z,24.27
2024-03-12T12:26:35.636Z,23.95
2024-03-12T12:29:05.591Z,23.63
2024-03-12T12:31:37.799Z,23.63
2024-03-12T12:34:07.772Z,22.63
2024-03-12T12:39:11.880Z,22.80
2024-03-12T12:41:44.602Z,23.20
2024-03-12T12:44:17.958Z,22.60
2024-03-12T12:46:48.119Z,21.67
2024-03-12T12:49:16.509Z,22.10
2024-03-12T12:51:47.586Z,20.15
2024-03-12T12:54:19.467Z,19.40
2024-03-12T12:56:50.960Z,20.98
2024-03-12T12:59:21.291Z,20.67
2024-03-12T13:01:50.322Z,20.85
2024-03-12T13:04:24.321Z,20.95
2024-03-12T13:06:55.164Z,21.08
2024-03-12T13:09:33.293Z,21.15
2024-03-12T13:12:02.969Z,19.95
2024-03-12T13:14:31.318Z,20.13
2024-03-12T13:17:01.018Z,20.13
2024-03-12T13:19:29.345Z,19.88
2024-03-12T13:21:59.937Z,19.23
2024-03-12T13:24:30.793Z,18.42
2024-03-12T13:27:00.300Z,17.75
2024-03-12T13:29:29.060Z,17.05
2024-03-12T13:31:57.243Z,16.17
2024-03-12T13:34:25.508Z,16.77
2024-03-12T13:36:53.871Z,16.42
2024-03-12T13:39:21.915Z,16.58
2024-03-12T13:41:50.841Z,15.68
2024-03-12T13:44:20.097Z,16.08
2024-03-12T13:46:47.967Z,16.15
2024-03-12T13:49:18.194Z,16.88
2024-03-12T13:51:47.148Z,16.92
2024-03-12T13:54:16.215Z,15.65
2024-03-12T13:56:46.439Z,15.18
2024-03-12T13:59:18.958Z,15.27
2024-03-12T14:01:49.146Z,14.85
2024-03-12T14:04:18.394Z,15.10
2024-03-12T14:06:48.315Z,15.80
2024-03-12T14:09:16.559Z,14.63
2024-03-12T14:11:44.585Z,15.52
2024-03-12T14:14:12.691Z,15.43
2024-03-12T14:16:40.702Z,15.18
2024-03-12T14:19:10.074Z,14.90
2024-03-12T14:21:38.126Z,14.07
2024-03-12T14:24:06.810Z,14.63
2024-03-12T14:26:34.680Z,14.03
2024-03-12T14:29:02.549Z,14.20
2024-03-12T14:31:30.660Z,14.05
2024-03-12T14:33:59.297Z,14.32
2024-03-12T14:36:28.720Z,13.70
2024-03-12T14:38:57.102Z,13.82
2024-03-12T14:41:25.047Z,14.52
2024-03-12T14:43:53.188Z,13.80
2024-03-12T14:46:21.375Z,13.27
2024-03-12T14:48:53.539Z,13.15
2024-03-12T14:51:21.535Z,12.82
2024-03-12T14:53:50.759Z,14.48
2024-03-12T14:56:18.670Z,12.82
2024-03-12T14:58:46.481Z,11.20
2024-03-12T15:01:15.301Z,11.35
2024-03-12T15:03:44.737Z,11.32
2024-03-12T15:06:13.506Z,11.10
2024-03-12T15:08:41.643Z,11.15
2024-03-12T15:11:10.958Z,11.13
2024-03-12T15:13:39.255Z,11.00
2024-03-12T15:16:08.374Z,10.20
2024-03-12T15:18:36.693Z,9.43
2024-03-12T15:21:06.342Z,8.98
2024-03-12T15:26:03.608Z,6.65
2024-03-12T15:31:01.055Z,5.70
2024-03-12T15:33:32.962Z,5.55
2024-03-12T15:36:01.575Z,5.07
2024-03-12T15:38:30.016Z,4.90
2024-03-12T15:40:58.596Z,5.13
2024-03-12T15:43:27.201Z,4.50
2024-03-12T15:45:56.940Z,4.17
2024-03-12T15:48:25.103Z,3.67
2024-03-12T15:50:53.655Z,3.95
2024-03-12T15:53:21.564Z,3.65
2024-03-12T15:55:49.442Z,4.25
2024-03-12T15:58:18.675Z,3.90
2024-03-12T16:00:47.135Z,4.25
2024-03-12T16:03:16.381Z,4.40
2024-03-12T16:05:44.667Z,3.88
2024-03-12T16:08:13.645Z,4.10
2024-03-12T16:10:41.937Z,4.00
2024-03-12T16:13:11.864Z,3.75
2024-03-12T16:15:39.792Z,3.88
2024-03-12T16:18:07.959Z,3.70
2024-03-12T16:20:38.329Z,3.47
2024-03-12T16:23:06.170Z,3.47
2024-03-12T16:25:34.029Z,3.05
2024-03-12T16:28:02.684Z,3.05
2024-03-12T16:30:30.533Z,2.80
2024-03-12T16:32:58.811Z,2.85
2024-03-12T16:35:29.529Z,3.25
2024-03-12T16:37:58.749Z,2.70
2024-03-12T16:40:27.577Z,2.78
2024-03-12T16:42:57.251Z,3.17
2024-03-12T16:47:53.125Z,3.15
2024-03-12T16:50:22.185Z,3.50
2024-03-12T16:52:50.012Z,2.80
2024-03-12T16:55:20.055Z,4.85
2024-03-12T16:57:48.874Z,4.05
2024-03-12T17:00:17.743Z,3.20
2024-03-12T17:02:46.583Z,2.77
2024-03-12T17:05:17.630Z,3.22
2024-03-12T17:07:50.205Z,3.50
2024-03-12T17:10:20.505Z,3.30
2024-03-12T17:12:49.485Z,3.30
2024-03-12T17:15:20.361Z,3.10
2024-03-12T17:17:49.166Z,3.08
2024-03-12T17:20:17.606Z,3.60
2024-03-12T17:22:46.840Z,3.40
2024-03-12T17:25:17.914Z,3.08
2024-03-12T17:27:50.549Z,3.88
2024-03-12T17:30:19.411Z,3.10
2024-03-12T17:32:48.157Z,3.70
2024-03-12T17:35:19.066Z,3.05
2024-03-12T17:37:49.378Z,3.35
2024-03-12T17:40:20.127Z,3.30
2024-03-12T17:42:51.171Z,3.03
2024-03-12T17:45:20.077Z,3.58
2024-03-12T17:47:50.312Z,3.75
2024-03-12T17:50:20.614Z,3.70
2024-03-12T17:52:50.879Z,3.70
2024-03-12T17:55:20.604Z,3.55
2024-03-12T17:57:51.886Z,3.83
2024-03-12T18:00:22.662Z,5.28
2024-03-12T18:02:51.728Z,3.70
2024-03-12T18:05:21.281Z,4.40
2024-03-12T18:07:53.589Z,3.78
2024-03-12T18:10:23.510Z,4.13
2024-03-12T18:12:53.796Z,4.00
2024-03-12T18:15:21.875Z,4.05
2024-03-12T18:17:49.853Z,3.63
2024-03-12T18:20:25.009Z,3.80
2024-03-12T18:22:53.892Z,4.03
2024-03-12T18:25:21.985Z,3.63
2024-03-12T18:27:51.644Z,3.60
2024-03-12T18:30:21.529Z,4.05
2024-03-12T18:32:50.171Z,3.72
2024-03-12T18:35:20.073Z,4.30
2024-03-12T18:37:48.259Z,4.15
2024-03-12T18:40:20.027Z,5.20
2024-03-12T18:42:49.201Z,5.45
2024-03-12T18:45:19.829Z,6.18
2024-03-12T18:47:51.130Z,7.97
2024-03-12T18:50:21.282Z,6.50
2024-03-12T18:52:49.672Z,6.82
2024-03-12T18:55:19.147Z,7.97
2024-03-12T19:00:19.733Z,9.10
2024-03-12T19:02:52.954Z,23.25
2024-03-12T19:05:23.428Z,8.15
2024-03-12T19:07:53.244Z,7.38
2024-03-12T19:10:23.636Z,22.83
2024-03-12T19:12:52.138Z,10.23
2024-03-12T19:15:22.844Z,11.38
2024-03-12T19:17:53.039Z,9.85
2024-03-12T19:20:24.071Z,8.32
2024-03-12T19:22:54.932Z,7.65
2024-03-12T19:25:27.505Z,7.57
2024-03-12T19:27:56.172Z,8.52
2024-03-12T19:30:25.731Z,8.85
2024-03-12T19:32:56.706Z,8.30
2024-03-12T19:35:24.983Z,8.40
2024-03-12T19:37:54.194Z,7.75
2024-03-12T19:40:23.071Z,7.78
2024-03-12T19:42:53.700Z,10.68
2024-03-12T19:45:24.827Z,7.32
2024-03-12T19:47:53.766Z,9.57
2024-03-12T19:50:25.957Z,8.45
2024-03-12T19:52:57.663Z,9.05
2024-03-12T19:55:27.392Z,9.90
2024-03-12T19:57:57.320Z,7.88
2024-03-12T20:00:27.953Z,10.40
2024-03-12T20:02:56.693Z,8.50
2024-03-12T20:05:28.440Z,7.57
2024-03-12T20:07:56.994Z,10.07
2024-03-12T20:10:26.397Z,6.88
2024-03-12T20:12:56.534Z,8.77
2024-03-12T20:15:25.095Z,6.32
2024-03-12T20:17:53.286Z,8.05
2024-03-12T20:20:24.397Z,8.25
2024-03-12T20:22:54.320Z,6.40
2024-03-12T20:25:23.855Z,7.32
2024-03-12T20:30:23.260Z,8.57
2024-03-12T20:32:53.647Z,6.97
2024-03-12T20:35:22.601Z,5.70
2024-03-12T20:37:50.817Z,6.28
2024-03-12T20:40:24.197Z,4.95
2024-03-12T20:42:52.035Z,5.63
2024-03-12T20:45:22.429Z,5.32
2024-03-12T20:47:51.103Z,5.78
2024-03-12T20:50:20.013Z,6.70
2024-03-12T20:52:48.588Z,10.00
2024-03-12T20:55:17.223Z,5.70
2024-03-12T20:57:49.125Z,4.63
2024-03-12T21:00:19.838Z,6.28
2024-03-12T21:02:49.477Z,8.02
2024-03-12T21:05:19.609Z,6.00
2024-03-12T21:07:47.716Z,5.45
2024-03-12T21:10:15.707Z,5.10
2024-03-12T21:12:44.862Z,6.05
2024-03-12T21:15:17.146Z,6.47
2024-03-12T21:17:46.309Z,6.68
2024-03-12T21:20:19.188Z,6.05
2024-03-12T21:22:47.798Z,5.78
2024-03-12T21:25:16.742Z,5.88
2024-03-12T21:27:44.695Z,7.03
2024-03-12T21:30:17.826Z,5.40
2024-03-12T21:32:45.974Z,7.50
2024-03-12T21:35:13.856Z,6.07
2024-03-12T21:37:42.135Z,7.18
2024-03-12T21:40:13.263Z,7.20
2024-03-12T21:42:44.086Z,5.88
2024-03-12T21:45:13.273Z,7.63
2024-03-12T21:47:46.098Z,6.20
2024-03-12T21:50:16.476Z,4.47
2024-03-12T21:52:46.690Z,5.10
2024-03-12T21:55:15.328Z,4.60
2024-03-12T21:57:44.777Z,8.57
2024-03-12T22:00:20.736Z,4.55
2024-03-12T22:02:50.971Z,4.20
2024-03-12T22:05:21.455Z,3.67
2024-03-12T22:07:51.026Z,4.07
2024-03-12T22:10:19.511Z,6.07
2024-03-12T22:12:48.461Z,5.03
2024-03-12T22:15:17.009Z,5.97
2024-03-12T22:17:45.730Z,3.95
2024-03-12T22:20:20.109Z,4.17
2024-03-12T22:22:48.608Z,3.90
2024-03-12T22:25:17.531Z,4.85
2024-03-12T22:27:47.311Z,4.53
2024-03-12T22:30:17.685Z,9.80
2024-03-12T22:32:48.657Z,6.72
2024-03-12T22:35:19.531Z,5.65
2024-03-12T22:37:49.837Z,5.72
2024-03-12T22:40:19.744Z,6.68
2024-03-12T22:42:48.838Z,4.32
2024-03-12T22:45:18.004Z,7.15
2024-03-12T22:47:46.244Z,8.75
2024-03-12T22:50:15.245Z,5.20
2024-03-12T22:52:48.692Z,4.60
2024-03-12T22:55:17.678Z,5.90
2024-03-12T22:57:45.991Z,5.45
2024-03-12T23:00:31.478Z,4.22
2024-03-12T23:03:01.488Z,4.43
2024-03-12T23:05:34.941Z,6.32
2024-03-12T23:08:06.912Z,5.50
2024-03-12T23:10:36.565Z,5.65
2024-03-12T23:13:05.137Z,3.65
2024-03-12T23:15:33.195Z,4.97
2024-03-12T23:18:04.133Z,7.45
2024-03-12T23:20:32.738Z,7.65
2024-03-12T23:23:01.242Z,3.72
2024-03-12T23:25:30.945Z,5.10
2024-03-12T23:28:00.551Z,4.22
2024-03-12T23:30:28.781Z,5.35
2024-03-12T23:32:59.325Z,8.75
2024-03-12T23:35:29.066Z,5.88
2024-03-12T23:37:59.136Z,9.65
2024-03-12T23:40:27.455Z,6.18
2024-03-12T23:42:57.261Z,10.10
2024-03-12T23:45:25.569Z,9.63
2024-03-12T23:47:53.565Z,5.50
2024-03-12T23:50:21.923Z,4.07
2024-03-12T23:52:50.348Z,4.75
2024-03-12T23:55:18.217Z,6.30
2024-03-12T23:57:46.114Z,14.48
